sensor_id;sensor_type;location;lat;lon;timestamp;temperature;humidity
65854;DHT22;52627;48.838;2.402;2023-04-03T00:01:07;8.47;71.50
65854;DHT22;52627;48.838;2.402;2023-04-03T00:03:34;8.46;71.49
65854;DHT22;52627;48.838;2.402;2023-04-03T00:06:02;8.46;71.42
65854;DHT22;52627;48.838;2.402;2023-04-03T00:08:30;8.44;71.40
65854;DHT22;52627;48.838;2.402;2023-04-03T00:10:59;8.44;71.41
65854;DHT22;52627;48.838;2.402;2023-04-03T00:13:26;8.45;71.40
65854;DHT22;52627;48.838;2.402;2023-04-03T00:15:54;8.44;71.30
65854;DHT22;52627;48.838;2.402;2023-04-03T00:18:22;8.43;71.22
65854;DHT22;52627;48.838;2.402;2023-04-03T00:20:49;8.41;71.19
65854;DHT22;52627;48.838;2.402;2023-04-03T00:23:16;8.38;71.20
65854;DHT22;52627;48.838;2.402;2023-04-03T00:25:44;8.36;71.20
65854;DHT22;52627;48.838;2.402;2023-04-03T00:28:11;8.37;71.18
65854;DHT22;52627;48.838;2.402;2023-04-03T00:30:38;8.30;71.18
65854;DHT22;52627;48.838;2.402;2023-04-03T00:33:06;8.27;71.27
65854;DHT22;52627;48.838;2.402;2023-04-03T00:35:34;8.29;71.30
65854;DHT22;52627;48.838;2.402;2023-04-03T00:38:02;8.32;71.30
65854;DHT22;52627;48.838;2.402;2023-04-03T00:40:32;8.35;71.29
65854;DHT22;52627;48.838;2.402;2023-04-03T00:43:01;8.36;71.20
65854;DHT22;52627;48.838;2.402;2023-04-03T00:45:30;8.36;71.20
65854;DHT22;52627;48.838;2.402;2023-04-03T00:48:00;8.36;71.14
65854;DHT22;52627;48.838;2.402;2023-04-03T00:50:28;8.34;71.17
65854;DHT22;52627;48.838;2.402;2023-04-03T00:52:56;8.35;71.20
65854;DHT22;52627;48.838;2.402;2023-04-03T00:55:24;8.38;71.18
65854;DHT22;52627;48.838;2.402;2023-04-03T00:57:52;8.39;71.13
65854;DHT22;52627;48.838;2.402;2023-04-03T01:00:20;8.41;71.10
65854;DHT22;52627;48.838;2.402;2023-04-03T01:02:50;8.41;71.09
65854;DHT22;52627;48.838;2.402;2023-04-03T01:05:19;8.41;71.10
65854;DHT22;52627;48.838;2.402;2023-04-03T01:07:47;8.43;71.10
65854;DHT22;52627;48.838;2.402;2023-04-03T01:10:16;8.44;71.10
65854;DHT22;52627;48.838;2.402;2023-04-03T01:12:47;8.43;71.05
65854;DHT22;52627;48.838;2.402;2023-04-03T01:15:17;8.42;71.02
65854;DHT22;52627;48.838;2.402;2023-04-03T01:17:54;8.41;71.00
65854;DHT22;52627;48.838;2.402;2023-04-03T01:25:53;8.43;70.96
65854;DHT22;52627;48.838;2.402;2023-04-03T01:28:24;8.41;70.89
65854;DHT22;52627;48.838;2.402;2023-04-03T01:30:59;8.42;70.90
65854;DHT22;52627;48.838;2.402;2023-04-03T01:33:29;8.43;70.90
65854;DHT22;52627;48.838;2.402;2023-04-03T01:35:57;8.41;70.90
65854;DHT22;52627;48.838;2.402;2023-04-03T01:38:24;8.42;71.00
65854;DHT22;52627;48.838;2.402;2023-04-03T01:40:52;8.40;71.07
65854;DHT22;52627;48.838;2.402;2023-04-03T01:43:19;8.38;71.16
65854;DHT22;52627;48.838;2.402;2023-04-03T01:45:47;8.38;71.28
65854;DHT22;52627;48.838;2.402;2023-04-03T01:48:16;8.38;71.37
65854;DHT22;52627;48.838;2.402;2023-04-03T01:50:43;8.36;71.50
65854;DHT22;52627;48.838;2.402;2023-04-03T01:53:11;8.35;71.56
65854;DHT22;52627;48.838;2.402;2023-04-03T01:55:39;8.34;71.61
65854;DHT22;52627;48.838;2.402;2023-04-03T01:58:06;8.32;71.70
65854;DHT22;52627;48.838;2.402;2023-04-03T02:00:33;8.31;71.71
65854;DHT22;52627;48.838;2.402;2023-04-03T02:03:01;8.30;71.79
65854;DHT22;52627;48.838;2.402;2023-04-03T02:05:29;8.28;71.80
65854;DHT22;52627;48.838;2.402;2023-04-03T02:07:57;8.25;71.86
65854;DHT22;52627;48.838;2.402;2023-04-03T02:10:24;8.23;71.88
65854;DHT22;52627;48.838;2.402;2023-04-03T02:12:51;8.19;71.86
65854;DHT22;52627;48.838;2.402;2023-04-03T02:15:19;8.20;71.83
65854;DHT22;52627;48.838;2.402;2023-04-03T02:17:46;8.20;71.80
65854;DHT22;52627;48.838;2.402;2023-04-03T02:20:13;8.19;71.80
65854;DHT22;52627;48.838;2.402;2023-04-03T02:22:41;8.19;71.80
65854;DHT22;52627;48.838;2.402;2023-04-03T02:25:08;8.18;71.80
65854;DHT22;52627;48.838;2.402;2023-04-03T02:27:37;8.17;71.77
65854;DHT22;52627;48.838;2.402;2023-04-03T02:30:04;8.16;71.74
65854;DHT22;52627;48.838;2.402;2023-04-03T02:32:32;8.14;71.71
65854;DHT22;52627;48.838;2.402;2023-04-03T02:34:59;8.14;71.70
65854;DHT22;52627;48.838;2.402;2023-04-03T02:37:27;8.13;71.70
65854;DHT22;52627;48.838;2.402;2023-04-03T02:39:54;8.13;71.64
65854;DHT22;52627;48.838;2.402;2023-04-03T02:42:21;8.13;71.60
65854;DHT22;52627;48.838;2.402;2023-04-03T02:44:49;8.13;71.47
65854;DHT22;52627;48.838;2.402;2023-04-03T02:47:16;8.08;71.50
65854;DHT22;52627;48.838;2.402;2023-04-03T02:49:43;8.08;71.49
65854;DHT22;52627;48.838;2.402;2023-04-03T02:52:13;8.11;71.41
65854;DHT22;52627;48.838;2.402;2023-04-03T02:54:41;8.11;71.40
65854;DHT22;52627;48.838;2.402;2023-04-03T02:57:08;8.12;71.39
65854;DHT22;52627;48.838;2.402;2023-04-03T02:59:36;8.12;71.33
65854;DHT22;52627;48.838;2.402;2023-04-03T03:02:08;8.12;71.29
65854;DHT22;52627;48.838;2.402;2023-04-03T03:04:35;8.13;71.24
65854;DHT22;52627;48.838;2.402;2023-04-03T03:07:03;8.13;71.20
65854;DHT22;52627;48.838;2.402;2023-04-03T03:09:30;8.13;71.18
65854;DHT22;52627;48.838;2.402;2023-04-03T03:11:58;8.11;71.10
65854;DHT22;52627;48.838;2.402;2023-04-03T03:14:26;8.11;71.07
65854;DHT22;52627;48.838;2.402;2023-04-03T03:16:53;8.11;71.05
65854;DHT22;52627;48.838;2.402;2023-04-03T03:19:20;8.10;71.00
65854;DHT22;52627;48.838;2.402;2023-04-03T03:21:48;8.09;70.99
65854;DHT22;52627;48.838;2.402;2023-04-03T03:24:15;8.10;70.92
65854;DHT22;52627;48.838;2.402;2023-04-03T03:26:42;8.11;70.90
65854;DHT22;52627;48.838;2.402;2023-04-03T03:29:10;8.11;70.88
65854;DHT22;52627;48.838;2.402;2023-04-03T03:31:38;8.12;70.80
65854;DHT22;52627;48.838;2.402;2023-04-03T03:34:05;8.11;70.70
65854;DHT22;52627;48.838;2.402;2023-04-03T03:36:32;8.11;70.63
65854;DHT22;52627;48.838;2.402;2023-04-03T03:38:59;8.10;70.59
65854;DHT22;52627;48.838;2.402;2023-04-03T03:41:27;8.08;70.45
65854;DHT22;52627;48.838;2.402;2023-04-03T03:43:54;8.07;70.39
65854;DHT22;52627;48.838;2.402;2023-04-03T03:46:21;8.05;70.32
65854;DHT22;52627;48.838;2.402;2023-04-03T03:48:49;8.03;70.28
65854;DHT22;52627;48.838;2.402;2023-04-03T03:51:16;8.03;70.20
65854;DHT22;52627;48.838;2.402;2023-04-03T03:53:43;8.03;70.20
65854;DHT22;52627;48.838;2.402;2023-04-03T03:56:11;8.01;70.10
65854;DHT22;52627;48.838;2.402;2023-04-03T03:58:38;8.00;70.01
65854;DHT22;52627;48.838;2.402;2023-04-03T04:01:06;7.99;70.00
65854;DHT22;52627;48.838;2.402;2023-04-03T04:03:34;7.99;69.91
65854;DHT22;52627;48.838;2.402;2023-04-03T04:06:01;7.98;69.87
65854;DHT22;52627;48.838;2.402;2023-04-03T04:08:28;7.97;69.79
65854;DHT22;52627;48.838;2.402;2023-04-03T04:10:56;7.94;69.72
65854;DHT22;52627;48.838;2.402;2023-04-03T04:13:23;7.93;69.73
65854;DHT22;52627;48.838;2.402;2023-04-03T04:15:51;7.91;69.57
65854;DHT22;52627;48.838;2.402;2023-04-03T04:18:18;7.84;69.50
65854;DHT22;52627;48.838;2.402;2023-04-03T04:20:47;7.82;69.54
65854;DHT22;52627;48.838;2.402;2023-04-03T04:23:14;7.83;69.54
65854;DHT22;52627;48.838;2.402;2023-04-03T04:25:44;7.84;69.50
65854;DHT22;52627;48.838;2.402;2023-04-03T04:28:12;7.87;69.47
65854;DHT22;52627;48.838;2.402;2023-04-03T04:30:40;7.89;69.38
65854;DHT22;52627;48.838;2.402;2023-04-03T04:33:07;7.88;69.27
65854;DHT22;52627;48.838;2.402;2023-04-03T04:35:35;7.87;69.07
65854;DHT22;52627;48.838;2.402;2023-04-03T04:38:02;7.81;68.97
65854;DHT22;52627;48.838;2.402;2023-04-03T04:40:30;7.76;68.96
65854;DHT22;52627;48.838;2.402;2023-04-03T04:42:57;7.75;68.85
65854;DHT22;52627;48.838;2.402;2023-04-03T04:45:24;7.76;68.80
65854;DHT22;52627;48.838;2.402;2023-04-03T04:47:54;7.77;68.72
65854;DHT22;52627;48.838;2.402;2023-04-03T04:50:22;7.76;68.62
65854;DHT22;52627;48.838;2.402;2023-04-03T04:52:49;7.78;68.59
65854;DHT22;52627;48.838;2.402;2023-04-03T04:55:17;7.76;68.47
65854;DHT22;52627;48.838;2.402;2023-04-03T04:57:44;7.76;68.35
65854;DHT22;52627;48.838;2.402;2023-04-03T05:00:11;7.75;68.26
65854;DHT22;52627;48.838;2.402;2023-04-03T05:02:40;7.75;68.14
65854;DHT22;52627;48.838;2.402;2023-04-03T05:05:07;7.74;68.10
65854;DHT22;52627;48.838;2.402;2023-04-03T05:07:35;7.75;68.09
65854;DHT22;52627;48.838;2.402;2023-04-03T05:10:02;7.74;67.95
65854;DHT22;52627;48.838;2.402;2023-04-03T05:12:30;7.74;67.76
65854;DHT22;52627;48.838;2.402;2023-04-03T05:14:59;7.69;67.50
65854;DHT22;52627;48.838;2.402;2023-04-03T05:17:26;7.62;67.43
65854;DHT22;52627;48.838;2.402;2023-04-03T05:19:53;7.60;67.41
65854;DHT22;52627;48.838;2.402;2023-04-03T05:22:21;7.61;67.38
65854;DHT22;52627;48.838;2.402;2023-04-03T05:24:48;7.62;67.25
65854;DHT22;52627;48.838;2.402;2023-04-03T05:27:15;7.63;67.18
65854;DHT22;52627;48.838;2.402;2023-04-03T05:29:43;7.63;67.11
65854;DHT22;52627;48.838;2.402;2023-04-03T05:32:11;7.62;66.99
65854;DHT22;52627;48.838;2.402;2023-04-03T05:34:39;7.61;66.91
65854;DHT22;52627;48.838;2.402;2023-04-03T05:37:06;7.61;66.77
65854;DHT22;52627;48.838;2.402;2023-04-03T05:39:33;7.60;66.62
65854;DHT22;52627;48.838;2.402;2023-04-03T05:42:01;7.56;66.40
65854;DHT22;52627;48.838;2.402;2023-04-03T05:44:28;7.49;66.31
65854;DHT22;52627;48.838;2.402;2023-04-03T05:46:56;7.43;66.31
65854;DHT22;52627;48.838;2.402;2023-04-03T05:49:23;7.43;66.30
65854;DHT22;52627;48.838;2.402;2023-04-03T05:51:50;7.42;66.12
65854;DHT22;52627;48.838;2.402;2023-04-03T05:54:20;7.38;66.00
65854;DHT22;52627;48.838;2.402;2023-04-03T05:56:52;7.35;66.00
65854;DHT22;52627;48.838;2.402;2023-04-03T05:59:20;7.36;66.00
65854;DHT22;52627;48.838;2.402;2023-04-03T06:01:48;7.41;65.96
65854;DHT22;52627;48.838;2.402;2023-04-03T06:04:15;7.43;65.84
65854;DHT22;52627;48.838;2.402;2023-04-03T06:06:43;7.45;65.78
65854;DHT22;52627;48.838;2.402;2023-04-03T06:09:22;7.47;65.75
65854;DHT22;52627;48.838;2.402;2023-04-03T06:11:52;7.49;65.71
65854;DHT22;52627;48.838;2.402;2023-04-03T06:14:20;7.52;65.67
65854;DHT22;52627;48.838;2.402;2023-04-03T06:16:47;7.56;65.58
65854;DHT22;52627;48.838;2.402;2023-04-03T06:19:15;7.58;65.53
65854;DHT22;52627;48.838;2.402;2023-04-03T06:21:43;7.59;65.46
65854;DHT22;52627;48.838;2.402;2023-04-03T06:24:12;7.61;65.34
65854;DHT22;52627;48.838;2.402;2023-04-03T06:26:41;7.61;65.21
65854;DHT22;52627;48.838;2.402;2023-04-03T06:29:09;7.59;65.18
65854;DHT22;52627;48.838;2.402;2023-04-03T06:31:36;7.60;65.04
65854;DHT22;52627;48.838;2.402;2023-04-03T06:34:04;7.58;64.95
65854;DHT22;52627;48.838;2.402;2023-04-03T06:36:35;7.57;64.90
65854;DHT22;52627;48.838;2.402;2023-04-03T06:39:03;7.56;64.82
65854;DHT22;52627;48.838;2.402;2023-04-03T06:41:30;7.54;64.72
65854;DHT22;52627;48.838;2.402;2023-04-03T06:43:58;7.52;64.59
65854;DHT22;52627;48.838;2.402;2023-04-03T06:46:25;7.45;64.63
65854;DHT22;52627;48.838;2.402;2023-04-03T06:48:53;7.44;64.53
65854;DHT22;52627;48.838;2.402;2023-04-03T06:51:25;7.42;64.60
65854;DHT22;52627;48.838;2.402;2023-04-03T06:53:54;7.50;64.62
65854;DHT22;52627;48.838;2.402;2023-04-03T06:56:22;7.57;64.59
65854;DHT22;52627;48.838;2.402;2023-04-03T06:58:50;7.62;64.44
65854;DHT22;52627;48.838;2.402;2023-04-03T07:01:18;7.67;64.40
65854;DHT22;52627;48.838;2.402;2023-04-03T07:03:49;7.73;64.40
65854;DHT22;52627;48.838;2.402;2023-04-03T07:06:16;7.80;64.34
65854;DHT22;52627;48.838;2.402;2023-04-03T07:08:44;7.87;64.29
65854;DHT22;52627;48.838;2.402;2023-04-03T07:11:12;7.94;64.26
65854;DHT22;52627;48.838;2.402;2023-04-03T07:13:39;8.02;64.20
65854;DHT22;52627;48.838;2.402;2023-04-03T07:16:07;8.09;64.19
65854;DHT22;52627;48.838;2.402;2023-04-03T07:18:35;8.18;64.17
65854;DHT22;52627;48.838;2.402;2023-04-03T07:21:03;8.26;63.93
65854;DHT22;52627;48.838;2.402;2023-04-03T07:23:31;8.30;63.96
65854;DHT22;52627;48.838;2.402;2023-04-03T07:25:58;8.37;63.74
65854;DHT22;52627;48.838;2.402;2023-04-03T07:28:26;8.28;63.41
65854;DHT22;52627;48.838;2.402;2023-04-03T07:31:00;8.17;63.34
65854;DHT22;52627;48.838;2.402;2023-04-03T07:33:29;8.06;63.23
65854;DHT22;52627;48.838;2.402;2023-04-03T07:35:58;7.98;63.16
65854;DHT22;52627;48.838;2.402;2023-04-03T07:38:25;7.86;63.04
65854;DHT22;52627;48.838;2.402;2023-04-03T07:40:52;7.76;63.10
65854;DHT22;52627;48.838;2.402;2023-04-03T07:43:20;7.74;63.10
65854;DHT22;52627;48.838;2.402;2023-04-03T07:45:49;7.75;63.17
65854;DHT22;52627;48.838;2.402;2023-04-03T07:48:23;7.83;63.19
65854;DHT22;52627;48.838;2.402;2023-04-03T07:50:51;7.89;63.13
65854;DHT22;52627;48.838;2.402;2023-04-03T07:53:19;8.04;63.21
65854;DHT22;52627;48.838;2.402;2023-04-03T07:55:47;8.28;63.24
65854;DHT22;52627;48.838;2.402;2023-04-03T07:58:16;8.54;63.18
65854;DHT22;52627;48.838;2.402;2023-04-03T08:00:45;8.78;63.04
65854;DHT22;52627;48.838;2.402;2023-04-03T08:03:12;9.02;62.89
65854;DHT22;52627;48.838;2.402;2023-04-03T08:05:41;9.26;62.70
65854;DHT22;52627;48.838;2.402;2023-04-03T08:08:10;9.42;62.56
65854;DHT22;52627;48.838;2.402;2023-04-03T08:10:39;9.61;62.56
65854;DHT22;52627;48.838;2.402;2023-04-03T08:13:07;9.84;62.29
65854;DHT22;52627;48.838;2.402;2023-04-03T08:15:35;9.83;61.65
65854;DHT22;52627;48.838;2.402;2023-04-03T08:18:03;9.76;61.55
65854;DHT22;52627;48.838;2.402;2023-04-03T08:20:31;9.82;61.60
65854;DHT22;52627;48.838;2.402;2023-04-03T08:22:58;9.90;61.46
65854;DHT22;52627;48.838;2.402;2023-04-03T08:25:25;9.92;61.04
65854;DHT22;52627;48.838;2.402;2023-04-03T08:27:53;9.96;61.00
65854;DHT22;52627;48.838;2.402;2023-04-03T08:30:20;9.90;59.97
65854;DHT22;52627;48.838;2.402;2023-04-03T08:32:47;9.74;59.81
65854;DHT22;52627;48.838;2.402;2023-04-03T08:35:15;9.61;59.50
65854;DHT22;52627;48.838;2.402;2023-04-03T08:37:42;9.47;59.21
65854;DHT22;52627;48.838;2.402;2023-04-03T08:40:14;9.32;59.01
65854;DHT22;52627;48.838;2.402;2023-04-03T08:42:59;9.33;59.24
65854;DHT22;52627;48.838;2.402;2023-04-03T08:48:06;9.60;58.98
65854;DHT22;52627;48.838;2.402;2023-04-03T08:50:38;9.72;58.92
65854;DHT22;52627;48.838;2.402;2023-04-03T08:53:14;9.84;58.88
65854;DHT22;52627;48.838;2.402;2023-04-03T08:55:45;10.03;58.72
65854;DHT22;52627;48.838;2.402;2023-04-03T08:58:18;10.10;58.37
65854;DHT22;52627;48.838;2.402;2023-04-03T09:00:51;10.11;58.41
65854;DHT22;52627;48.838;2.402;2023-04-03T09:03:21;10.17;58.33
65854;DHT22;52627;48.838;2.402;2023-04-03T09:06:03;10.21;58.11
65854;DHT22;52627;48.838;2.402;2023-04-03T09:08:34;10.46;57.77
65854;DHT22;52627;48.838;2.402;2023-04-03T09:13:59;10.66;57.42
65854;DHT22;52627;48.838;2.402;2023-04-03T09:19:24;10.54;57.02
65854;DHT22;52627;48.838;2.402;2023-04-03T09:22:12;10.46;56.66
65854;DHT22;52627;48.838;2.402;2023-04-03T09:24:58;10.53;56.90
65854;DHT22;52627;48.838;2.402;2023-04-03T09:27:28;10.83;56.67
65854;DHT22;52627;48.838;2.402;2023-04-03T09:29:55;10.92;56.50
65854;DHT22;52627;48.838;2.402;2023-04-03T09:32:27;11.23;56.37
65854;DHT22;52627;48.838;2.402;2023-04-03T09:35:01;11.53;55.85
65854;DHT22;52627;48.838;2.402;2023-04-03T09:37:46;12.18;55.83
65854;DHT22;52627;48.838;2.402;2023-04-03T09:40:32;13.12;55.41
65854;DHT22;52627;48.838;2.402;2023-04-03T09:45:56;15.11;54.08
65854;DHT22;52627;48.838;2.402;2023-04-03T09:48:52;15.96;53.54
65854;DHT22;52627;48.838;2.402;2023-04-03T09:51:33;16.69;52.62
65854;DHT22;52627;48.838;2.402;2023-04-03T09:54:01;17.32;52.46
65854;DHT22;52627;48.838;2.402;2023-04-03T09:57:01;17.98;51.50
65854;DHT22;52627;48.838;2.402;2023-04-03T09:59:31;17.98;49.57
65854;DHT22;52627;48.838;2.402;2023-04-03T10:02:00;17.90;49.08
65854;DHT22;52627;48.838;2.402;2023-04-03T10:04:37;17.49;47.58
65854;DHT22;52627;48.838;2.402;2023-04-03T10:10:40;17.42;47.04
65854;DHT22;52627;48.838;2.402;2023-04-03T10:16:11;18.14;45.50
65854;DHT22;52627;48.838;2.402;2023-04-03T10:18:42;18.39;45.21
65854;DHT22;52627;48.838;2.402;2023-04-03T10:24:10;18.44;42.09
65854;DHT22;52627;48.838;2.402;2023-04-03T10:26:50;17.53;41.83
65854;DHT22;52627;48.838;2.402;2023-04-03T10:29:25;17.16;42.50
65854;DHT22;52627;48.838;2.402;2023-04-03T10:34:57;17.84;41.06
65854;DHT22;52627;48.838;2.402;2023-04-03T10:40:32;17.41;40.70
65854;DHT22;52627;48.838;2.402;2023-04-03T10:51:07;17.70;38.46
65854;DHT22;52627;48.838;2.402;2023-04-03T10:56:57;17.66;38.59
65854;DHT22;52627;48.838;2.402;2023-04-03T10:59:43;18.16;38.69
65854;DHT22;52627;48.838;2.402;2023-04-03T11:05:03;18.27;37.31
65854;DHT22;52627;48.838;2.402;2023-04-03T11:07:40;18.38;37.59
65854;DHT22;52627;48.838;2.402;2023-04-03T11:10:31;18.74;37.60
65854;DHT22;52627;48.838;2.402;2023-04-03T11:15:59;19.18;36.60
65854;DHT22;52627;48.838;2.402;2023-04-03T11:23:54;17.58;35.10
65854;DHT22;52627;48.838;2.402;2023-04-03T11:26:24;17.41;35.15
65854;DHT22;52627;48.838;2.402;2023-04-03T11:28:59;17.16;35.25
65854;DHT22;52627;48.838;2.402;2023-04-03T11:37:15;18.02;34.93
65854;DHT22;52627;48.838;2.402;2023-04-03T11:39:51;18.06;34.61
65854;DHT22;52627;48.838;2.402;2023-04-03T11:47:58;17.62;34.70
65854;DHT22;52627;48.838;2.402;2023-04-03T11:50:47;17.73;34.49
65854;DHT22;52627;48.838;2.402;2023-04-03T11:58:16;17.82;34.46
65854;DHT22;52627;48.838;2.402;2023-04-03T12:05:56;18.23;34.01
65854;DHT22;52627;48.838;2.402;2023-04-03T12:08:45;18.32;34.01
65854;DHT22;52627;48.838;2.402;2023-04-03T12:11:28;18.28;33.84
65854;DHT22;52627;48.838;2.402;2023-04-03T12:16:33;18.19;33.43
65854;DHT22;52627;48.838;2.402;2023-04-03T12:26:44;17.49;33.51
65854;DHT22;52627;48.838;2.402;2023-04-03T12:40:51;18.10;33.05
65854;DHT22;52627;48.838;2.402;2023-04-03T12:46:26;17.25;33.37
65854;DHT22;52627;48.838;2.402;2023-04-03T12:49:02;17.47;33.45
65854;DHT22;52627;48.838;2.402;2023-04-03T12:51:42;17.68;33.43
65854;DHT22;52627;48.838;2.402;2023-04-03T12:54:13;17.89;33.52
65854;DHT22;52627;48.838;2.402;2023-04-03T12:56:42;18.22;33.55
65854;DHT22;52627;48.838;2.402;2023-04-03T12:59:23;18.44;33.22
65854;DHT22;52627;48.838;2.402;2023-04-03T13:01:55;18.17;33.18
65854;DHT22;52627;48.838;2.402;2023-04-03T13:04:23;18.30;33.31
65854;DHT22;52627;48.838;2.402;2023-04-03T13:06:51;18.58;33.26
65854;DHT22;52627;48.838;2.402;2023-04-03T13:11:52;18.96;32.73
65854;DHT22;52627;48.838;2.402;2023-04-03T13:14:24;18.80;32.80
65854;DHT22;52627;48.838;2.402;2023-04-03T13:16:56;18.94;33.00
65854;DHT22;52627;48.838;2.402;2023-04-03T13:19:25;19.20;32.82
65854;DHT22;52627;48.838;2.402;2023-04-03T13:21:59;19.41;32.75
65854;DHT22;52627;48.838;2.402;2023-04-03T13:24:30;19.38;32.59
65854;DHT22;52627;48.838;2.402;2023-04-03T13:27:00;19.34;32.56
65854;DHT22;52627;48.838;2.402;2023-04-03T13:29:29;19.31;32.36
65854;DHT22;52627;48.838;2.402;2023-04-03T13:31:58;19.24;32.34
65854;DHT22;52627;48.838;2.402;2023-04-03T13:34:29;19.19;31.67
65854;DHT22;52627;48.838;2.402;2023-04-03T13:37:19;18.44;31.39
65854;DHT22;52627;48.838;2.402;2023-04-03T13:39:56;17.89;31.54
65854;DHT22;52627;48.838;2.402;2023-04-03T13:42:26;17.40;31.63
65854;DHT22;52627;48.838;2.402;2023-04-03T13:51:04;16.60;32.56
65854;DHT22;52627;48.838;2.402;2023-04-03T13:53:47;16.39;32.73
65854;DHT22;52627;48.838;2.402;2023-04-03T13:56:25;15.87;33.16
65854;DHT22;52627;48.838;2.402;2023-04-03T14:01:35;15.42;33.74
65854;DHT22;52627;48.838;2.402;2023-04-03T14:04:12;15.43;33.95
65854;DHT22;52627;48.838;2.402;2023-04-03T14:06:43;15.43;34.10
65854;DHT22;52627;48.838;2.402;2023-04-03T14:09:10;15.46;34.19
65854;DHT22;52627;48.838;2.402;2023-04-03T14:11:39;15.41;34.32
65854;DHT22;52627;48.838;2.402;2023-04-03T14:14:16;15.34;34.46
65854;DHT22;52627;48.838;2.402;2023-04-03T14:16:46;15.28;34.70
65854;DHT22;52627;48.838;2.402;2023-04-03T14:19:28;15.27;34.88
65854;DHT22;52627;48.838;2.402;2023-04-03T14:21:57;15.22;35.17
65854;DHT22;52627;48.838;2.402;2023-04-03T14:24:25;15.18;35.41
65854;DHT22;52627;48.838;2.402;2023-04-03T14:26:56;15.26;35.59
65854;DHT22;52627;48.838;2.402;2023-04-03T14:29:24;15.29;35.64
65854;DHT22;52627;48.838;2.402;2023-04-03T14:31:51;15.28;35.71
65854;DHT22;52627;48.838;2.402;2023-04-03T14:34:29;15.31;35.83
65854;DHT22;52627;48.838;2.402;2023-04-03T14:36:57;15.39;35.96
65854;DHT22;52627;48.838;2.402;2023-04-03T14:39:25;15.45;36.01
65854;DHT22;52627;48.838;2.402;2023-04-03T14:41:53;15.36;35.94
65854;DHT22;52627;48.838;2.402;2023-04-03T14:44:20;15.05;35.92
65854;DHT22;52627;48.838;2.402;2023-04-03T14:46:50;14.72;36.05
65854;DHT22;52627;48.838;2.402;2023-04-03T14:49:26;14.52;36.32
65854;DHT22;52627;48.838;2.402;2023-04-03T14:51:56;14.35;36.39
65854;DHT22;52627;48.838;2.402;2023-04-03T14:54:24;14.24;36.55
65854;DHT22;52627;48.838;2.402;2023-04-03T14:56:56;14.27;36.61
65854;DHT22;52627;48.838;2.402;2023-04-03T14:59:25;14.16;36.66
65854;DHT22;52627;48.838;2.402;2023-04-03T15:01:52;14.11;36.87
65854;DHT22;52627;48.838;2.402;2023-04-03T15:04:20;14.23;37.07
65854;DHT22;52627;48.838;2.402;2023-04-03T15:06:48;14.28;37.15
65854;DHT22;52627;48.838;2.402;2023-04-03T15:09:22;14.28;37.25
65854;DHT22;52627;48.838;2.402;2023-04-03T15:11:51;14.26;37.38
65854;DHT22;52627;48.838;2.402;2023-04-03T15:14:20;14.32;37.47
65854;DHT22;52627;48.838;2.402;2023-04-03T15:17:01;14.45;37.56
65854;DHT22;52627;48.838;2.402;2023-04-03T15:19:31;14.60;37.60
65854;DHT22;52627;48.838;2.402;2023-04-03T15:22:03;14.69;37.55
65854;DHT22;52627;48.838;2.402;2023-04-03T15:24:30;14.66;37.48
65854;DHT22;52627;48.838;2.402;2023-04-03T15:26:58;14.60;37.50
65854;DHT22;52627;48.838;2.402;2023-04-03T15:29:27;14.45;37.56
65854;DHT22;52627;48.838;2.402;2023-04-03T15:31:54;14.41;37.67
65854;DHT22;52627;48.838;2.402;2023-04-03T15:34:22;14.41;37.73
65854;DHT22;52627;48.838;2.402;2023-04-03T15:36:50;14.36;37.61
65854;DHT22;52627;48.838;2.402;2023-04-03T15:39:19;14.18;37.68
65854;DHT22;52627;48.838;2.402;2023-04-03T15:41:47;14.04;37.76
65854;DHT22;52627;48.838;2.402;2023-04-03T15:44:15;13.90;37.95
65854;DHT22;52627;48.838;2.402;2023-04-03T15:46:45;13.80;38.18
65854;DHT22;52627;48.838;2.402;2023-04-03T15:49:13;13.71;38.40
65854;DHT22;52627;48.838;2.402;2023-04-03T15:51:41;13.70;38.51
65854;DHT22;52627;48.838;2.402;2023-04-03T15:54:08;13.78;38.57
65854;DHT22;52627;48.838;2.402;2023-04-03T15:56:35;13.80;38.50
65854;DHT22;52627;48.838;2.402;2023-04-03T15:59:02;13.77;38.51
65854;DHT22;52627;48.838;2.402;2023-04-03T16:01:30;13.73;38.49
65854;DHT22;52627;48.838;2.402;2023-04-03T16:03:58;13.65;38.56
65854;DHT22;52627;48.838;2.402;2023-04-03T16:06:25;13.64;38.73
65854;DHT22;52627;48.838;2.402;2023-04-03T16:08:53;13.64;38.81
65854;DHT22;52627;48.838;2.402;2023-04-03T16:11:24;13.58;38.75
65854;DHT22;52627;48.838;2.402;2023-04-03T16:13:52;13.51;38.78
65854;DHT22;52627;48.838;2.402;2023-04-03T16:16:23;13.51;38.93
65854;DHT22;52627;48.838;2.402;2023-04-03T16:18:50;13.57;38.99
65854;DHT22;52627;48.838;2.402;2023-04-03T16:21:18;13.57;38.97
65854;DHT22;52627;48.838;2.402;2023-04-03T16:23:45;13.54;39.07
65854;DHT22;52627;48.838;2.402;2023-04-03T16:26:13;13.49;39.13
65854;DHT22;52627;48.838;2.402;2023-04-03T16:28:41;13.45;39.20
65854;DHT22;52627;48.838;2.402;2023-04-03T16:31:08;13.40;39.22
65854;DHT22;52627;48.838;2.402;2023-04-03T16:33:36;13.38;39.29
65854;DHT22;52627;48.838;2.402;2023-04-03T16:36:04;13.40;39.34
65854;DHT22;52627;48.838;2.402;2023-04-03T16:38:32;13.44;39.53
65854;DHT22;52627;48.838;2.402;2023-04-03T16:41:00;13.53;39.57
65854;DHT22;52627;48.838;2.402;2023-04-03T16:43:31;13.55;39.59
65854;DHT22;52627;48.838;2.402;2023-04-03T16:45:59;13.51;39.57
65854;DHT22;52627;48.838;2.402;2023-04-03T16:48:29;13.41;39.55
65854;DHT22;52627;48.838;2.402;2023-04-03T16:50:57;13.33;39.69
65854;DHT22;52627;48.838;2.402;2023-04-03T16:53:24;13.31;39.76
65854;DHT22;52627;48.838;2.402;2023-04-03T16:55:52;13.31;39.89
65854;DHT22;52627;48.838;2.402;2023-04-03T16:58:20;13.28;39.96
65854;DHT22;52627;48.838;2.402;2023-04-03T17:00:49;13.28;40.06
65854;DHT22;52627;48.838;2.402;2023-04-03T17:03:17;13.28;40.12
65854;DHT22;52627;48.838;2.402;2023-04-03T17:05:47;13.19;40.22
65854;DHT22;52627;48.838;2.402;2023-04-03T17:08:16;13.06;40.37
65854;DHT22;52627;48.838;2.402;2023-04-03T17:10:44;13.09;40.48
65854;DHT22;52627;48.838;2.402;2023-04-03T17:13:11;13.16;40.50
65854;DHT22;52627;48.838;2.402;2023-04-03T17:15:39;13.17;40.50
65854;DHT22;52627;48.838;2.402;2023-04-03T17:18:06;13.09;40.59
65854;DHT22;52627;48.838;2.402;2023-04-03T17:20:34;13.04;40.61
65854;DHT22;52627;48.838;2.402;2023-04-03T17:23:04;13.00;40.70
65854;DHT22;52627;48.838;2.402;2023-04-03T17:25:32;12.97;40.79
65854;DHT22;52627;48.838;2.402;2023-04-03T17:27:59;12.97;40.88
65854;DHT22;52627;48.838;2.402;2023-04-03T17:30:26;12.95;40.97
65854;DHT22;52627;48.838;2.402;2023-04-03T17:32:54;12.94;41.09
65854;DHT22;52627;48.838;2.402;2023-04-03T17:35:21;12.97;41.13
65854;DHT22;52627;48.838;2.402;2023-04-03T17:37:49;13.01;41.21
65854;DHT22;52627;48.838;2.402;2023-04-03T17:40:16;13.03;41.29
65854;DHT22;52627;48.838;2.402;2023-04-03T17:42:44;13.02;41.37
65854;DHT22;52627;48.838;2.402;2023-04-03T17:45:12;12.93;41.39
65854;DHT22;52627;48.838;2.402;2023-04-03T17:47:39;12.85;41.42